Aviation Digital Data Service (ADDS)

Output produced by METARs form (0215 UTC 19 February 2019)
found at http://www.aviationweather.gov/metar/data/
 
LECO 190200Z AUTO 17003KT 0050 R21/0325N R03/0375D FG VV/// 04/04 Q1022
TAF LECO 182000Z 1821/1921 VRB03KT 9999 SCT020 TX13/1915Z TN03/1907Z 
     PROB30 
     TEMPO 1821/1823 RA SHRA SCT030TCU 
     TEMPO 1900/1910 1500 BCFG 
     PROB40 
     TEMPO 1900/1909 0350 FG BKN001 
     PROB40 
     TEMPO 1900/1909 0100 FG VV001 
     BECMG 1912/1914 01010KT 
     BECMG 1918/1920 20005KT
       
LEAB 190200Z 15004KT 6000 NSC 02/02 Q1020 NOSIG
TAF LEAB 182300Z 1900/1909 VRB05KT CAVOK 
     PROB40 
     TEMPO 1900/1909 3000 BR BKN006 
     PROB30 
     TEMPO 1900/1909 0200 FG VV001
       
LEAL 190200Z 30005KT CAVOK 06/02 Q1020 NOSIG
TAF LEAL 182300Z 1900/1924 32008KT 9999 FEW020 TX17/1912Z TN06/1907Z 
     BECMG 1910/1912 08012KT 
     BECMG 1918/1921 32006KT
       
LEAM 190200Z AUTO 34006KT 310V010 9999 NCD 13/04 Q1018
TAF LEAM 182000Z 1821/1921 34006KT CAVOK TX19/1915Z TN09/1907Z 
     BECMG 1909/1911 05012KT 
     BECMG 1919/1921 34006KT
       
LEAS 190200Z AUTO 23005KT 9999 NCD 06/04 Q1022
TAF LEAS 182000Z 1821/1921 19005KT 9999 SCT030 BKN055 TX12/1914Z TN07/1906Z 
     PROB30 
     TEMPO 1821/1904 3000 -RA BR BKN010 
     BECMG 1910/1912 08010KT
       
LEMD 190200Z 34003KT CAVOK 03/00 Q1020 NOSIG
TAF LEMD 182300Z 1900/2006 VRB05KT CAVOK TX15/1916Z TNM01/1906Z
       
LEBL 190200Z 33005KT 9999 FEW022 08/07 Q1022 NOSIG
TAF LEBL 182300Z 1900/1924 33006KT 9999 FEW020 TX15/1912Z TN06/1907Z 
     PROB30 
     TEMPO 1900/1908 BKN014 
     TEMPO 1903/1909 33010G20KT 
     BECMG 1910/1912 10008KT 
     BECMG 1920/1922 34006KT
       
LEBB 190200Z AUTO 35005KT 9999 FEW016/// SCT026/// OVC034/// 09/08 Q1022
TAF LEBB 182300Z 1900/1924 32010KT 9999 FEW015 TX15/1914Z TN08/1906Z 
     TEMPO 1900/1912 3000 -RADZ BR BKN010 
     PROB40 
     TEMPO 1904/1910 1500 RADZ BKN005 
     TEMPO 1909/1924 06008KT
       
LEBG 190200Z AUTO 05006KT 020V080 CAVOK 05/03 Q1019
TAF AMD LEBG 181816Z 1818/1903 04010KT CAVOK 
     PROB30 
     TEMPO 1818/1824 RA BKN040 
     PROB40 
     TEMPO 1823/1903 3000 BR BKN004 
     PROB30 
     TEMPO 1900/1903 0200 FG VV001
       
LEBA 190200Z AUTO 00000KT CAVOK 07/05 Q1019
TAF LEVS 181700Z 1818/1903 VRB05KT CAVOK
       
GCFV 190200Z AUTO 34008KT 9999 NCD 15/08 Q1021
TAF GCFV 182000Z 1821/1921 35012KT 9999 BKN030 TX20/1914Z TN14/1906Z 
     PROB30 
     TEMPO 1821/1823 01022KT 
     PROB30 
     TEMPO 1909/1918 03015G25KT
       
TAF LEGT 181700Z 1818/1903 VRB05KT CAVOK
       
LEGE 190200Z 00000KT 6000 BKN028 06/06 Q1022
TAF LEGE 182300Z 1900/1924 VRB03KT 9999 FEW015 TX18/1913Z TN06/1907Z 
     TEMPO 1900/1907 4000 BR BKN010 
     PROB40 
     TEMPO 1900/1906 0500 FG VV002 
     TEMPO 1914/1918 17010KT
       
GCLP 190200Z 36011KT 9999 SCT045 15/06 Q1021 NOSIG
TAF GCLP 182000Z 1821/1921 01020KT 9999 BKN025 TX20/1914Z TN15/1906Z 
     PROB40 
     TEMPO 1821/1823 01018G28KT 
     BECMG 1919/1921 30010KT 
     PROB30 
     TEMPO 1912/1918 01015G25KT
       
LEGR 190200Z AUTO 22002KT CAVOK 06/03 Q1019
TAF LEGR 182000Z 1821/1921 VRB02KT CAVOK TX19/1914Z TN03/1907Z
       
GCHI 190200Z AUTO 02015KT 330V050 9999 BKN042 17/10 Q1022
TAF GCHI 182000Z 1821/1921 02015KT 9999 BKN020 TX20/1914Z TN16/1906Z 
     PROB30 
     TEMPO 1908/1918 08012KT
       
LEIB 190200Z AUTO VRB02KT 9999 FEW014/// 09/08 Q1020
TAF LEIB 182000Z 1821/1921 06008KT 9999 FEW012 TX16/1912Z TN07/1907Z 
     PROB30 
     TEMPO 1821/1907 0500 FG VV002 
     TEMPO 1909/1917 06012G22KT
       
LEJR 190200Z AUTO VRB02KT 9999 BKN038/// OVC046/// 12/10 Q1019
TAF LEJR 182300Z 1900/1924 16005KT CAVOK TX19/1914Z TN07/1906Z
       
GCGM 190200Z AUTO VRB08KT 9999 NCD 15/05 Q1022 RMK R09/35009KT 290V030 ARP/01011KT 300V050
TAF GCGM 182000Z 1821/1921 VRB18KT 9999 SCT025 TX21/1914Z TN13/1906Z 
     PROB30 
     TEMPO 1821/1902 VRB15G25KT 
     BECMG 1904/1906 35008KT
       
GCLA 190200Z AUTO 02012KT 350V070 9999 BKN039/// OVC047/// 16/08 Q1023
TAF AMD GCLA 182334Z 1823/1921 36011KT 9999 BKN020 TX20/1914Z TN15/1906Z 
     BECMG 1910/1912 06010KT 
     BECMG 1919/1921 30011KT
       
GCRR 190200Z AUTO 35009KT 9999 NCD 15/09 Q1021
TAF GCRR 182000Z 1821/1921 01015KT 9999 BKN030 TX20/1914Z TN13/1906Z
       
LELN 190200Z AUTO 02001KT 9999 BKN037/// 02/02 Q1019
TAF LELN 181700Z 1818/1903 VRB04KT 9999 BKN035 
     PROB40 
     TEMPO 1818/1903 RA BKN012
       
LEMG 190200Z 29006KT 9999 FEW030 10/07 Q1019 NOSIG
TAF LEMG 182300Z 1900/1924 31005KT 9999 FEW020 TX18/1913Z TN09/1907Z 
     BECMG 1910/1912 14006KT 
     BECMG 1920/1922 30005KT
       
GEML 190200Z AUTO 04004KT 360V070 9999 FEW017/// SCT029/// 14/11 Q1018
TAF GEML 182000Z 1821/1921 28004KT 9999 FEW008 TX20/1913Z TN10/1907Z 
     TEMPO 1904/1911 BKN008 
     BECMG 1906/1908 06010KT
       
LEMH 190200Z AUTO 11005KT 9999 BKN024/// 10/07 Q1021
TAF LEMH 182000Z 1821/1921 10008KT 9999 SCT015 TX16/1912Z TN06/1907Z 
     BECMG 1904/1906 08009KT
       
LEMO 190200Z 22002KT CAVOK 11/08 Q1019 NOSIG
TAF LEMO 182300Z 1900/1909 VRB02KT CAVOK
       
LEPP 190200Z AUTO 07001KT 8000 NCD 02/M00 Q1021
TAF LEPP 182000Z 1821/1921 VRB04KT CAVOK TX15/1914Z TN01/1906Z 
     PROB40 
     TEMPO 1903/1907 0800 BCFG
       
LERS 190200Z AUTO 03005KT 9999 NCD 05/05 Q1021
TAF LERS 182000Z 1821/1921 01005KT 9999 FEW010 SCT020 TX16/1913Z TN04/1907Z 
     TEMPO 1821/1906 BKN010 
     PROB30 
     TEMPO 1821/1907 4000 BR BKN010 
     TEMPO 1912/1916 14007KT
       
LERT 190200Z 18006KT 140V220 9999 FEW015 SCT022 BKN055 14/11 Q1019 NOSIG
TAF LERT 182300Z 1900/1909 12008KT 9999 FEW040
       
LESA 190200Z AUTO 33002KT 6000 FEW011/// BKN017/// 05/04 Q1020
TAF LESA 182300Z 1900/1924 VRB05KT CAVOK TX13/1915Z TNM01/1906Z 
     PROB40 
     TEMPO 1900/1910 3000 BR BKN006 
     PROB30 
     TEMPO 1904/1910 0100 FG VV001
       
LESO 190200Z AUTO 17003KT 140V220 9999 BKN029/// BKN034/// BKN040/// 09/07 Q1022
TAF LESO 182300Z 1900/1924 VRB03KT 8000 SCT020 TX15/1914Z TN07/1904Z 
     PROB40 
     TEMPO 1900/1909 3000 BR BKN010 
     BECMG 1908/1912 02010KT
       
LEXJ 190200Z AUTO 24004KT 7000 -RA BKN023/// BKN030/// OVC035/// 08/08 Q1023
TAF LEXJ 182000Z 1821/1921 30009KT 9999 SCT010 SCT025 TX15/1914Z TN07/1907Z 
     TEMPO 1821/1912 3000 -RADZ BR BKN010 
     BECMG 1910/1912 07010KT
       
LEST 190212Z 31001KT 0800 R17/0325U R35/1900D BCFG FEW010 01/01 Q1022 TEMPO 0300 FG BKN005
TAF LEST 182300Z 1900/1924 06005KT 9999 FEW020 TX12/1914Z TN03/1907Z 
     PROB40 
     TEMPO 1900/1909 0800 BCFG BKN005 
     PROB40 
     TEMPO 1900/1908 0350 FG VV001
       
LEZL 190200Z AUTO VRB02KT CAVOK 12/07 Q1019
TAF LEZL 182000Z 1821/1921 04004KT CAVOK TX21/1915Z TN07/1907Z
       
LESB 190200Z AUTO 35005KT CAVOK 07/05 Q1022
LEBZ 182100Z 34007KT 9999 SCT048 13/09 Q1018
TAF LEBZ 182300Z 1900/1924 VRB02KT CAVOK TX17/1915Z TN05/1906Z 
     TEMPO 1900/1911 3000 BR 
     PROB40 
     TEMPO 1902/1910 0300 FG VV001
       
GCXO 190200Z AUTO 33011KT 280V350 9999 OVC031/// 10/05 Q1023
TAF GCXO 182000Z 1821/1921 34012KT 9999 BKN010 TX15/1914Z TN09/1906Z 
     PROB30 
     TEMPO 1914/1921 32018G28KT
       
GCTS 190200Z 06012KT 9999 FEW035 BKN045 16/06 Q1021 NOSIG
TAF GCTS 182000Z 1821/1921 04016KT 9999 SCT030 TX21/1914Z TN13/1906Z 
     PROB30 
     TEMPO 1904/1911 05006KT 
     PROB40 
     TEMPO 1911/1921 08016G26KT
       
LETO 190200Z 01006KT CAVOK 02/M00 Q1020 NOSIG
TAF LETO 182300Z 1900/1924 VRB05KT CAVOK TX15/1916Z TN00/1906Z
       
LEVC 190200Z 28003KT 5000 BR FEW018 06/05 Q1022 NOSIG
TAF LEVC 182300Z 1900/1924 VRB03KT 9999 FEW020 TX17/1913Z TN03/1907Z 
     PROB30 
     TEMPO 1900/1906 4000 BR BKN010 
     TEMPO 1912/1918 09010KT
       
LEVD 182030Z 35004KT CAVOK 05/01 Q1018
TAF LEVD 182300Z 1900/1924 VRB05KT CAVOK TX13/1915Z TN00/1906Z 
     PROB40 
     TEMPO 1903/1910 3000 BR BKN006 
     PROB30 
     TEMPO 1904/1910 0100 FG VV001
       
LEVX 190200Z 08001KT CAVOK 05/03 Q1021 NOSIG
TAF LEVX 182300Z 1900/1924 02005KT 9999 FEW030 TX13/1915Z TN05/1907Z 
     PROB40 1914/1920 28010KT
       
LEVT 190200Z 00000KT 9000 BKN011 06/05 Q1021
TAF LEVT 182300Z 1900/1924 VRB05KT 9999 SCT050 TX14/1915Z TN02/1907Z 
     TEMPO 1900/1912 02010KT 3000 -RA BR BKN010 
     PROB40 
     TEMPO 1900/1912 1500 BCFG BKN004
       
LEZG 190200Z 17002KT CAVOK 03/02 Q1021
TAF LEZG 182300Z 1900/1924 VRB04KT 9999 FEW040 TX16/1915Z TN04/1907Z 
     TEMPO 1900/1909 2000 BR BKN010 
     PROB30 
     TEMPO 1903/1908 0500 FG VV002 
     TEMPO 1914/1920 11010KT